Skip Navigation LinksHome page > Tools > METAR decoder Skip Navigation Links

METAR decoder



Chicago O'Hare Intl, Chicago

For information only: do not use for flight planning or navigation.
Latest weather
Observation time Thursday, November 26, 2015 1:19 PM CST
Local time Thursday, November 26, 2015 1:34 PM CST
Flight conditions Marginal Visual Meteorological Conditions
Wind direction South (190°)
Wind speed 16 mph
Visibility 6 mi.
Present weather light rain, mist
Sky condition
Ceiling 2,900 ft. broken clouds
Cloud layer scattered clouds 1,500 ft.
Cloud layer broken clouds 2,900 ft.
Cloud layer overcast 8,000 ft.
Temperature 55°F
Dewpoint 54°F
Altimeter 30.15 in.Hg
Derived measurements
Relative humidity 94%
Density altitude 365 ft.
Special weather observation.
METAR SPUS31 KWBC 261923 SPECI KORD 261919Z 19014KT 6SM R10L/6000VP6000FT -RA BR SCT015 BKN029 OVC080 13/12 A3015

InnerDrive.Weather 4.0.5722.1 Release CLR 4.0.30319.34014
Copyright ©2015 Inner Drive Technology. All rights reserved. Portions Copyright ©1986-2015 David Braverman.

Find weather

Site navigation

Skip Navigation Links

Place info

Page info

PayPal - The safer, easier way to pay online!

Return home.

Copyright ©2015 Inner Drive Technology. Purveyors of fine, hand-crafted computer software. Page printed 2015-11-26T19:34:48 UTC.